sensor_id;sensor_type;location;lat;lon;timestamp;temperature;humidity
70154;DHT22;57519;51.494;-2.626;2022-07-22T00:01:33;18.20;76.86
70154;DHT22;57519;51.494;-2.626;2022-07-22T00:03:59;18.30;76.77
70154;DHT22;57519;51.494;-2.626;2022-07-22T00:06:25;18.28;77.01
70154;DHT22;57519;51.494;-2.626;2022-07-22T00:08:50;18.32;76.62
70154;DHT22;57519;51.494;-2.626;2022-07-22T00:11:16;18.40;77.00
70154;DHT22;57519;51.494;-2.626;2022-07-22T00:13:41;18.45;76.36
70154;DHT22;57519;51.494;-2.626;2022-07-22T00:16:07;18.35;76.43
70154;DHT22;57519;51.494;-2.626;2022-07-22T00:18:32;18.37;76.40
70154;DHT22;57519;51.494;-2.626;2022-07-22T00:20:58;18.42;76.79
70154;DHT22;57519;51.494;-2.626;2022-07-22T00:23:23;18.45;76.67
70154;DHT22;57519;51.494;-2.626;2022-07-22T00:25:49;18.40;77.79
70154;DHT22;57519;51.494;-2.626;2022-07-22T00:28:14;18.37;77.47
70154;DHT22;57519;51.494;-2.626;2022-07-22T00:30:40;18.38;77.17
70154;DHT22;57519;51.494;-2.626;2022-07-22T00:33:05;18.37;77.42
70154;DHT22;57519;51.494;-2.626;2022-07-22T00:35:30;18.30;77.47
70154;DHT22;57519;51.494;-2.626;2022-07-22T00:37:56;18.24;77.74
70154;DHT22;57519;51.494;-2.626;2022-07-22T00:40:21;18.10;78.13
70154;DHT22;57519;51.494;-2.626;2022-07-22T00:42:47;18.05;78.45
70154;DHT22;57519;51.494;-2.626;2022-07-22T00:45:13;18.03;79.42
70154;DHT22;57519;51.494;-2.626;2022-07-22T00:47:38;17.94;79.09
70154;DHT22;57519;51.494;-2.626;2022-07-22T00:50:05;17.79;79.89
70154;DHT22;57519;51.494;-2.626;2022-07-22T00:52:32;17.76;79.95
70154;DHT22;57519;51.494;-2.626;2022-07-22T00:54:58;17.72;80.05
70154;DHT22;57519;51.494;-2.626;2022-07-22T00:57:24;17.79;79.84
70154;DHT22;57519;51.494;-2.626;2022-07-22T00:59:49;17.80;80.27
70154;DHT22;57519;51.494;-2.626;2022-07-22T01:02:15;17.89;80.12
70154;DHT22;57519;51.494;-2.626;2022-07-22T01:04:40;17.87;79.69
70154;DHT22;57519;51.494;-2.626;2022-07-22T01:07:06;17.97;80.13
70154;DHT22;57519;51.494;-2.626;2022-07-22T01:09:31;18.04;79.23
70154;DHT22;57519;51.494;-2.626;2022-07-22T01:11:57;18.04;79.14
70154;DHT22;57519;51.494;-2.626;2022-07-22T01:14:22;17.97;79.47
70154;DHT22;57519;51.494;-2.626;2022-07-22T01:16:48;18.05;79.22
70154;DHT22;57519;51.494;-2.626;2022-07-22T01:19:13;18.00;79.47
70154;DHT22;57519;51.494;-2.626;2022-07-22T01:21:38;17.91;79.82
70154;DHT22;57519;51.494;-2.626;2022-07-22T01:24:06;17.94;79.46
70154;DHT22;57519;51.494;-2.626;2022-07-22T01:26:31;18.11;77.76
70154;DHT22;57519;51.494;-2.626;2022-07-22T01:28:58;18.31;76.71
70154;DHT22;57519;51.494;-2.626;2022-07-22T01:31:24;18.49;76.28
70154;DHT22;57519;51.494;-2.626;2022-07-22T01:33:49;18.62;75.54
70154;DHT22;57519;51.494;-2.626;2022-07-22T01:36:15;18.66;75.19
70154;DHT22;57519;51.494;-2.626;2022-07-22T01:38:40;18.71;75.16
70154;DHT22;57519;51.494;-2.626;2022-07-22T01:41:05;18.72;75.04
70154;DHT22;57519;51.494;-2.626;2022-07-22T01:43:32;18.73;75.21
70154;DHT22;57519;51.494;-2.626;2022-07-22T01:45:57;18.71;74.96
70154;DHT22;57519;51.494;-2.626;2022-07-22T01:48:22;18.72;74.81
70154;DHT22;57519;51.494;-2.626;2022-07-22T01:50:48;18.68;74.90
70154;DHT22;57519;51.494;-2.626;2022-07-22T01:53:14;18.66;74.95
70154;DHT22;57519;51.494;-2.626;2022-07-22T01:55:40;18.62;75.17
70154;DHT22;57519;51.494;-2.626;2022-07-22T01:58:05;18.61;75.41
70154;DHT22;57519;51.494;-2.626;2022-07-22T02:00:32;18.62;75.19
70154;DHT22;57519;51.494;-2.626;2022-07-22T02:02:57;18.69;74.97
70154;DHT22;57519;51.494;-2.626;2022-07-22T02:05:23;18.65;74.80
70154;DHT22;57519;51.494;-2.626;2022-07-22T02:07:49;18.59;75.10
70154;DHT22;57519;51.494;-2.626;2022-07-22T02:10:14;18.68;74.84
70154;DHT22;57519;51.494;-2.626;2022-07-22T02:12:39;18.68;74.62
70154;DHT22;57519;51.494;-2.626;2022-07-22T02:15:05;18.63;74.87
70154;DHT22;57519;51.494;-2.626;2022-07-22T02:17:32;18.47;75.25
70154;DHT22;57519;51.494;-2.626;2022-07-22T02:19:58;18.52;75.37
70154;DHT22;57519;51.494;-2.626;2022-07-22T02:22:23;18.47;75.36
70154;DHT22;57519;51.494;-2.626;2022-07-22T02:24:49;18.47;75.47
70154;DHT22;57519;51.494;-2.626;2022-07-22T02:27:14;18.41;75.84
70154;DHT22;57519;51.494;-2.626;2022-07-22T02:29:40;18.44;75.59
70154;DHT22;57519;51.494;-2.626;2022-07-22T02:32:05;18.42;75.48
70154;DHT22;57519;51.494;-2.626;2022-07-22T02:34:31;18.47;75.53
70154;DHT22;57519;51.494;-2.626;2022-07-22T02:36:56;18.40;75.61
70154;DHT22;57519;51.494;-2.626;2022-07-22T02:39:22;18.41;75.60
70154;DHT22;57519;51.494;-2.626;2022-07-22T02:41:47;18.31;75.98
70154;DHT22;57519;51.494;-2.626;2022-07-22T02:44:13;18.27;76.04
70154;DHT22;57519;51.494;-2.626;2022-07-22T02:46:38;18.27;75.92
70154;DHT22;57519;51.494;-2.626;2022-07-22T02:49:04;18.21;76.20
70154;DHT22;57519;51.494;-2.626;2022-07-22T02:51:30;18.14;76.35
70154;DHT22;57519;51.494;-2.626;2022-07-22T02:53:56;18.05;77.09
70154;DHT22;57519;51.494;-2.626;2022-07-22T02:56:22;18.04;76.72
70154;DHT22;57519;51.494;-2.626;2022-07-22T02:58:47;18.08;76.78
70154;DHT22;57519;51.494;-2.626;2022-07-22T03:01:17;18.05;76.79
70154;DHT22;57519;51.494;-2.626;2022-07-22T03:03:42;18.00;76.96
70154;DHT22;57519;51.494;-2.626;2022-07-22T03:06:08;17.96;77.11
70154;DHT22;57519;51.494;-2.626;2022-07-22T03:08:33;18.08;76.89
70154;DHT22;57519;51.494;-2.626;2022-07-22T03:10:59;18.00;77.02
70154;DHT22;57519;51.494;-2.626;2022-07-22T03:13:24;18.01;77.06
70154;DHT22;57519;51.494;-2.626;2022-07-22T03:15:50;17.96;77.24
70154;DHT22;57519;51.494;-2.626;2022-07-22T03:18:15;17.90;77.41
70154;DHT22;57519;51.494;-2.626;2022-07-22T03:20:41;17.98;77.34
70154;DHT22;57519;51.494;-2.626;2022-07-22T03:23:06;17.93;77.46
70154;DHT22;57519;51.494;-2.626;2022-07-22T03:25:31;17.94;77.69
70154;DHT22;57519;51.494;-2.626;2022-07-22T03:27:57;17.90;77.57
70154;DHT22;57519;51.494;-2.626;2022-07-22T03:30:23;17.83;77.65
70154;DHT22;57519;51.494;-2.626;2022-07-22T03:32:49;17.80;77.95
70154;DHT22;57519;51.494;-2.626;2022-07-22T03:35:15;17.80;77.74
70154;DHT22;57519;51.494;-2.626;2022-07-22T03:37:41;17.84;77.52
70154;DHT22;57519;51.494;-2.626;2022-07-22T03:40:07;17.77;77.65
70154;DHT22;57519;51.494;-2.626;2022-07-22T03:42:33;17.79;77.57
70154;DHT22;57519;51.494;-2.626;2022-07-22T03:44:58;17.75;77.67
70154;DHT22;57519;51.494;-2.626;2022-07-22T03:47:24;17.67;77.83
70154;DHT22;57519;51.494;-2.626;2022-07-22T03:49:50;17.70;77.77
70154;DHT22;57519;51.494;-2.626;2022-07-22T03:52:16;17.61;78.04
70154;DHT22;57519;51.494;-2.626;2022-07-22T03:54:42;17.55;78.28
70154;DHT22;57519;51.494;-2.626;2022-07-22T03:57:08;17.46;78.28
70154;DHT22;57519;51.494;-2.626;2022-07-22T03:59:34;17.45;78.57
70154;DHT22;57519;51.494;-2.626;2022-07-22T04:02:00;17.45;78.63
70154;DHT22;57519;51.494;-2.626;2022-07-22T04:04:25;17.38;78.84
70154;DHT22;57519;51.494;-2.626;2022-07-22T04:06:51;17.35;78.73
70154;DHT22;57519;51.494;-2.626;2022-07-22T04:09:17;17.34;78.77
70154;DHT22;57519;51.494;-2.626;2022-07-22T04:11:42;17.32;78.78
70154;DHT22;57519;51.494;-2.626;2022-07-22T04:14:07;17.28;79.07
70154;DHT22;57519;51.494;-2.626;2022-07-22T04:16:33;17.25;79.11
70154;DHT22;57519;51.494;-2.626;2022-07-22T04:19:00;17.22;79.18
70154;DHT22;57519;51.494;-2.626;2022-07-22T04:21:26;17.19;79.36
70154;DHT22;57519;51.494;-2.626;2022-07-22T04:23:52;17.19;79.38
70154;DHT22;57519;51.494;-2.626;2022-07-22T04:26:18;17.19;79.59
70154;DHT22;57519;51.494;-2.626;2022-07-22T04:28:43;17.18;80.07
70154;DHT22;57519;51.494;-2.626;2022-07-22T04:31:09;17.17;79.88
70154;DHT22;57519;51.494;-2.626;2022-07-22T04:33:34;17.19;79.83
70154;DHT22;57519;51.494;-2.626;2022-07-22T04:36:00;17.21;79.90
70154;DHT22;57519;51.494;-2.626;2022-07-22T04:38:26;17.24;79.96
70154;DHT22;57519;51.494;-2.626;2022-07-22T04:40:52;17.43;79.56
70154;DHT22;57519;51.494;-2.626;2022-07-22T04:43:18;17.53;79.25
70154;DHT22;57519;51.494;-2.626;2022-07-22T04:45:43;17.65;78.80
70154;DHT22;57519;51.494;-2.626;2022-07-22T04:48:09;17.80;78.24
70154;DHT22;57519;51.494;-2.626;2022-07-22T04:50:37;17.87;78.47
70154;DHT22;57519;51.494;-2.626;2022-07-22T04:53:03;17.96;78.02
70154;DHT22;57519;51.494;-2.626;2022-07-22T04:55:29;18.08;78.00
70154;DHT22;57519;51.494;-2.626;2022-07-22T04:57:55;18.07;77.77
70154;DHT22;57519;51.494;-2.626;2022-07-22T05:00:21;18.05;77.54
70154;DHT22;57519;51.494;-2.626;2022-07-22T05:02:46;18.20;77.40
70154;DHT22;57519;51.494;-2.626;2022-07-22T05:05:12;18.11;77.59
70154;DHT22;57519;51.494;-2.626;2022-07-22T05:07:37;18.11;77.66
70154;DHT22;57519;51.494;-2.626;2022-07-22T05:10:03;18.13;78.16
70154;DHT22;57519;51.494;-2.626;2022-07-22T05:12:28;18.18;77.78
70154;DHT22;57519;51.494;-2.626;2022-07-22T05:14:54;18.21;77.65
70154;DHT22;57519;51.494;-2.626;2022-07-22T05:17:19;18.14;77.65
70154;DHT22;57519;51.494;-2.626;2022-07-22T05:19:45;18.17;77.85
70154;DHT22;57519;51.494;-2.626;2022-07-22T05:22:10;18.24;77.43
70154;DHT22;57519;51.494;-2.626;2022-07-22T05:24:35;18.21;77.48
70154;DHT22;57519;51.494;-2.626;2022-07-22T05:27:01;18.23;77.74
70154;DHT22;57519;51.494;-2.626;2022-07-22T05:29:27;18.30;77.61
70154;DHT22;57519;51.494;-2.626;2022-07-22T05:31:52;18.30;77.54
70154;DHT22;57519;51.494;-2.626;2022-07-22T05:34:18;18.24;77.60
70154;DHT22;57519;51.494;-2.626;2022-07-22T05:36:43;18.20;77.55
70154;DHT22;57519;51.494;-2.626;2022-07-22T05:39:09;18.24;78.20
70154;DHT22;57519;51.494;-2.626;2022-07-22T05:41:34;18.31;77.67
70154;DHT22;57519;51.494;-2.626;2022-07-22T05:44:00;18.35;77.30
70154;DHT22;57519;51.494;-2.626;2022-07-22T05:46:26;18.40;77.25
70154;DHT22;57519;51.494;-2.626;2022-07-22T05:48:51;18.35;77.56
70154;DHT22;57519;51.494;-2.626;2022-07-22T05:51:17;18.42;77.62
70154;DHT22;57519;51.494;-2.626;2022-07-22T05:53:42;18.47;77.76
70154;DHT22;57519;51.494;-2.626;2022-07-22T05:56:09;18.51;77.39
70154;DHT22;57519;51.494;-2.626;2022-07-22T05:58:37;18.56;76.78
70154;DHT22;57519;51.494;-2.626;2022-07-22T06:01:02;18.56;76.51
70154;DHT22;57519;51.494;-2.626;2022-07-22T06:03:28;18.53;77.11
70154;DHT22;57519;51.494;-2.626;2022-07-22T06:05:53;18.53;77.45
70154;DHT22;57519;51.494;-2.626;2022-07-22T06:08:19;18.58;76.44
70154;DHT22;57519;51.494;-2.626;2022-07-22T06:10:44;18.66;76.77
70154;DHT22;57519;51.494;-2.626;2022-07-22T06:13:10;18.72;76.59
70154;DHT22;57519;51.494;-2.626;2022-07-22T06:15:35;18.73;75.76
70154;DHT22;57519;51.494;-2.626;2022-07-22T06:18:01;18.68;76.54
70154;DHT22;57519;51.494;-2.626;2022-07-22T06:20:26;18.73;75.87
70154;DHT22;57519;51.494;-2.626;2022-07-22T06:22:52;18.77;76.55
70154;DHT22;57519;51.494;-2.626;2022-07-22T06:25:17;18.77;75.76
70154;DHT22;57519;51.494;-2.626;2022-07-22T06:27:43;18.82;75.06
70154;DHT22;57519;51.494;-2.626;2022-07-22T06:30:09;18.89;74.85
70154;DHT22;57519;51.494;-2.626;2022-07-22T06:32:34;19.04;73.67
70154;DHT22;57519;51.494;-2.626;2022-07-22T06:35:00;18.96;73.32
70154;DHT22;57519;51.494;-2.626;2022-07-22T06:37:26;18.88;73.33
70154;DHT22;57519;51.494;-2.626;2022-07-22T06:39:51;18.79;73.48
70154;DHT22;57519;51.494;-2.626;2022-07-22T06:42:17;18.92;73.75
70154;DHT22;57519;51.494;-2.626;2022-07-22T06:44:42;18.95;73.33
70154;DHT22;57519;51.494;-2.626;2022-07-22T06:47:08;18.92;73.10
70154;DHT22;57519;51.494;-2.626;2022-07-22T06:49:33;18.99;72.44
70154;DHT22;57519;51.494;-2.626;2022-07-22T06:51:58;18.98;72.43
70154;DHT22;57519;51.494;-2.626;2022-07-22T06:54:26;19.17;72.01
70154;DHT22;57519;51.494;-2.626;2022-07-22T06:56:52;19.21;71.52
70154;DHT22;57519;51.494;-2.626;2022-07-22T06:59:18;19.17;72.10
70154;DHT22;57519;51.494;-2.626;2022-07-22T07:01:43;19.18;72.11
70154;DHT22;57519;51.494;-2.626;2022-07-22T07:04:09;19.14;71.72
70154;DHT22;57519;51.494;-2.626;2022-07-22T07:06:35;19.20;72.06
70154;DHT22;57519;51.494;-2.626;2022-07-22T07:09:00;19.11;72.30
70154;DHT22;57519;51.494;-2.626;2022-07-22T07:11:26;19.13;72.19
70154;DHT22;57519;51.494;-2.626;2022-07-22T07:13:51;19.23;72.07
70154;DHT22;57519;51.494;-2.626;2022-07-22T07:16:17;19.16;71.78
70154;DHT22;57519;51.494;-2.626;2022-07-22T07:18:42;19.16;71.65
70154;DHT22;57519;51.494;-2.626;2022-07-22T07:21:08;19.02;71.94
70154;DHT22;57519;51.494;-2.626;2022-07-22T07:23:34;19.20;71.71
70154;DHT22;57519;51.494;-2.626;2022-07-22T07:25:59;19.44;71.25
70154;DHT22;57519;51.494;-2.626;2022-07-22T07:28:25;19.74;69.97
70154;DHT22;57519;51.494;-2.626;2022-07-22T07:30:50;19.69;69.74
70154;DHT22;57519;51.494;-2.626;2022-07-22T07:33:15;19.76;69.48
70154;DHT22;57519;51.494;-2.626;2022-07-22T07:35:41;19.66;69.08
70154;DHT22;57519;51.494;-2.626;2022-07-22T07:38:06;19.64;69.82
70154;DHT22;57519;51.494;-2.626;2022-07-22T07:40:32;19.82;69.18
70154;DHT22;57519;51.494;-2.626;2022-07-22T07:42:58;19.82;68.69
70154;DHT22;57519;51.494;-2.626;2022-07-22T07:45:24;19.82;68.52
70154;DHT22;57519;51.494;-2.626;2022-07-22T07:47:49;19.93;68.41
70154;DHT22;57519;51.494;-2.626;2022-07-22T07:50:15;19.97;68.24
70154;DHT22;57519;51.494;-2.626;2022-07-22T07:52:43;19.89;68.41
70154;DHT22;57519;51.494;-2.626;2022-07-22T07:55:10;19.71;68.95
70154;DHT22;57519;51.494;-2.626;2022-07-22T07:57:37;19.68;69.34
70154;DHT22;57519;51.494;-2.626;2022-07-22T08:00:05;19.65;69.39
70154;DHT22;57519;51.494;-2.626;2022-07-22T08:02:31;19.65;69.43
70154;DHT22;57519;51.494;-2.626;2022-07-22T08:04:57;19.68;69.43
70154;DHT22;57519;51.494;-2.626;2022-07-22T08:07:22;19.72;69.00
70154;DHT22;57519;51.494;-2.626;2022-07-22T08:09:48;19.57;69.37
70154;DHT22;57519;51.494;-2.626;2022-07-22T08:12:13;19.65;69.58
70154;DHT22;57519;51.494;-2.626;2022-07-22T08:14:39;19.82;69.17
70154;DHT22;57519;51.494;-2.626;2022-07-22T08:17:04;19.85;68.88
70154;DHT22;57519;51.494;-2.626;2022-07-22T08:19:30;20.05;68.37
70154;DHT22;57519;51.494;-2.626;2022-07-22T08:21:55;20.32;68.01
70154;DHT22;57519;51.494;-2.626;2022-07-22T08:24:21;20.52;66.99
70154;DHT22;57519;51.494;-2.626;2022-07-22T08:26:46;20.80;66.37
70154;DHT22;57519;51.494;-2.626;2022-07-22T08:29:11;21.10;65.73
70154;DHT22;57519;51.494;-2.626;2022-07-22T08:31:37;20.52;66.51
70154;DHT22;57519;51.494;-2.626;2022-07-22T08:34:04;20.19;67.55
70154;DHT22;57519;51.494;-2.626;2022-07-22T08:36:30;20.23;67.66
70154;DHT22;57519;51.494;-2.626;2022-07-22T08:38:55;20.43;67.12
70154;DHT22;57519;51.494;-2.626;2022-07-22T08:41:23;20.37;67.10
70154;DHT22;57519;51.494;-2.626;2022-07-22T08:43:48;20.50;66.79
70154;DHT22;57519;51.494;-2.626;2022-07-22T08:46:14;20.45;66.68
70154;DHT22;57519;51.494;-2.626;2022-07-22T08:48:40;20.71;66.56
70154;DHT22;57519;51.494;-2.626;2022-07-22T08:51:06;20.87;65.78
70154;DHT22;57519;51.494;-2.626;2022-07-22T08:53:32;20.94;65.78
70154;DHT22;57519;51.494;-2.626;2022-07-22T08:55:58;20.78;66.16
70154;DHT22;57519;51.494;-2.626;2022-07-22T08:58:25;20.80;66.90
70154;DHT22;57519;51.494;-2.626;2022-07-22T09:01:11;20.72;67.10
70154;DHT22;57519;51.494;-2.626;2022-07-22T09:03:48;20.58;67.25
70154;DHT22;57519;51.494;-2.626;2022-07-22T09:06:16;20.47;67.05
70154;DHT22;57519;51.494;-2.626;2022-07-22T09:09:05;20.33;68.20
70154;DHT22;57519;51.494;-2.626;2022-07-22T09:11:31;20.41;67.18
70154;DHT22;57519;51.494;-2.626;2022-07-22T09:13:59;20.63;67.05
70154;DHT22;57519;51.494;-2.626;2022-07-22T09:19:09;21.22;65.18
70154;DHT22;57519;51.494;-2.626;2022-07-22T09:21:36;21.58;64.33
70154;DHT22;57519;51.494;-2.626;2022-07-22T09:24:03;21.67;63.36
70154;DHT22;57519;51.494;-2.626;2022-07-22T09:26:34;21.85;63.62
70154;DHT22;57519;51.494;-2.626;2022-07-22T09:29:00;22.12;62.66
70154;DHT22;57519;51.494;-2.626;2022-07-22T09:31:28;22.09;62.13
70154;DHT22;57519;51.494;-2.626;2022-07-22T09:33:56;22.39;62.63
70154;DHT22;57519;51.494;-2.626;2022-07-22T09:36:22;22.59;62.18
70154;DHT22;57519;51.494;-2.626;2022-07-22T09:38:47;22.33;61.97
70154;DHT22;57519;51.494;-2.626;2022-07-22T09:41:13;22.36;62.52
70154;DHT22;57519;51.494;-2.626;2022-07-22T09:43:39;22.19;62.60
70154;DHT22;57519;51.494;-2.626;2022-07-22T09:46:05;22.42;62.62
70154;DHT22;57519;51.494;-2.626;2022-07-22T09:48:31;22.87;60.59
70154;DHT22;57519;51.494;-2.626;2022-07-22T09:50:57;22.97;60.83
70154;DHT22;57519;51.494;-2.626;2022-07-22T09:53:27;22.93;61.43
70154;DHT22;57519;51.494;-2.626;2022-07-22T09:55:54;22.96;60.65
70154;DHT22;57519;51.494;-2.626;2022-07-22T09:58:20;23.18;60.20
70154;DHT22;57519;51.494;-2.626;2022-07-22T10:00:46;23.15;60.82
70154;DHT22;57519;51.494;-2.626;2022-07-22T10:03:17;23.00;60.80
70154;DHT22;57519;51.494;-2.626;2022-07-22T10:05:44;23.38;59.43
70154;DHT22;57519;51.494;-2.626;2022-07-22T10:08:11;23.41;59.32
70154;DHT22;57519;51.494;-2.626;2022-07-22T10:10:38;23.28;59.91
70154;DHT22;57519;51.494;-2.626;2022-07-22T10:13:06;23.44;59.70
70154;DHT22;57519;51.494;-2.626;2022-07-22T10:15:33;23.75;58.70
70154;DHT22;57519;51.494;-2.626;2022-07-22T10:18:02;24.13;58.94
70154;DHT22;57519;51.494;-2.626;2022-07-22T10:20:30;23.94;57.46
70154;DHT22;57519;51.494;-2.626;2022-07-22T10:22:59;23.82;58.63
70154;DHT22;57519;51.494;-2.626;2022-07-22T10:25:27;23.89;59.01
70154;DHT22;57519;51.494;-2.626;2022-07-22T10:28:00;23.41;58.87
70154;DHT22;57519;51.494;-2.626;2022-07-22T10:30:34;22.93;59.57
70154;DHT22;57519;51.494;-2.626;2022-07-22T10:33:05;22.96;60.90
70154;DHT22;57519;51.494;-2.626;2022-07-22T10:35:33;22.90;60.16
70154;DHT22;57519;51.494;-2.626;2022-07-22T10:38:01;22.80;60.69
70154;DHT22;57519;51.494;-2.626;2022-07-22T10:40:45;22.57;60.94
70154;DHT22;57519;51.494;-2.626;2022-07-22T10:43:11;22.64;61.31
70154;DHT22;57519;51.494;-2.626;2022-07-22T10:45:51;22.77;61.04
70154;DHT22;57519;51.494;-2.626;2022-07-22T10:48:20;23.37;60.06
70154;DHT22;57519;51.494;-2.626;2022-07-22T10:50:49;23.72;58.26
70154;DHT22;57519;51.494;-2.626;2022-07-22T10:53:47;24.04;58.17
70154;DHT22;57519;51.494;-2.626;2022-07-22T10:59:12;23.37;60.16
70154;DHT22;57519;51.494;-2.626;2022-07-22T11:01:40;23.01;60.16
70154;DHT22;57519;51.494;-2.626;2022-07-22T11:04:19;22.66;60.93
70154;DHT22;57519;51.494;-2.626;2022-07-22T11:06:49;22.67;60.43
70154;DHT22;57519;51.494;-2.626;2022-07-22T11:09:18;22.79;60.12
70154;DHT22;57519;51.494;-2.626;2022-07-22T11:11:49;22.67;60.16
70154;DHT22;57519;51.494;-2.626;2022-07-22T11:16:41;22.50;60.56
70154;DHT22;57519;51.494;-2.626;2022-07-22T11:19:07;22.36;61.38
70154;DHT22;57519;51.494;-2.626;2022-07-22T11:21:34;22.05;61.97
70154;DHT22;57519;51.494;-2.626;2022-07-22T11:24:01;21.97;62.45
70154;DHT22;57519;51.494;-2.626;2022-07-22T11:29:01;21.74;63.42
70154;DHT22;57519;51.494;-2.626;2022-07-22T11:31:28;21.78;64.20
70154;DHT22;57519;51.494;-2.626;2022-07-22T11:34:08;21.95;63.00
70154;DHT22;57519;51.494;-2.626;2022-07-22T11:36:35;21.88;62.93
70154;DHT22;57519;51.494;-2.626;2022-07-22T11:39:01;21.78;64.01
70154;DHT22;57519;51.494;-2.626;2022-07-22T11:41:29;21.73;65.54
70154;DHT22;57519;51.494;-2.626;2022-07-22T11:43:57;21.64;66.37
70154;DHT22;57519;51.494;-2.626;2022-07-22T11:46:23;21.20;68.05
70154;DHT22;57519;51.494;-2.626;2022-07-22T11:48:51;20.91;69.45
70154;DHT22;57519;51.494;-2.626;2022-07-22T11:51:16;20.77;71.50
70154;DHT22;57519;51.494;-2.626;2022-07-22T11:53:42;20.64;74.21
70154;DHT22;57519;51.494;-2.626;2022-07-22T11:56:09;20.39;77.86
70154;DHT22;57519;51.494;-2.626;2022-07-22T11:58:45;20.06;79.71
70154;DHT22;57519;51.494;-2.626;2022-07-22T12:01:16;19.55;81.88
70154;DHT22;57519;51.494;-2.626;2022-07-22T12:03:49;19.28;84.60
70154;DHT22;57519;51.494;-2.626;2022-07-22T12:06:16;19.24;84.27
70154;DHT22;57519;51.494;-2.626;2022-07-22T12:08:43;19.10;85.19
70154;DHT22;57519;51.494;-2.626;2022-07-22T12:11:10;18.82;84.24
70154;DHT22;57519;51.494;-2.626;2022-07-22T12:13:40;19.02;87.26
70154;DHT22;57519;51.494;-2.626;2022-07-22T12:16:26;19.21;86.33
70154;DHT22;57519;51.494;-2.626;2022-07-22T12:18:59;19.23;85.78
70154;DHT22;57519;51.494;-2.626;2022-07-22T12:21:28;19.18;85.21
70154;DHT22;57519;51.494;-2.626;2022-07-22T12:24:03;18.96;84.40
70154;DHT22;57519;51.494;-2.626;2022-07-22T12:26:43;18.77;86.41
70154;DHT22;57519;51.494;-2.626;2022-07-22T12:29:21;18.82;87.06
70154;DHT22;57519;51.494;-2.626;2022-07-22T12:31:56;18.68;85.85
70154;DHT22;57519;51.494;-2.626;2022-07-22T12:34:32;18.73;86.26
70154;DHT22;57519;51.494;-2.626;2022-07-22T12:36:58;18.86;86.56
70154;DHT22;57519;51.494;-2.626;2022-07-22T12:39:25;18.89;84.71
70154;DHT22;57519;51.494;-2.626;2022-07-22T12:41:53;18.83;85.94
70154;DHT22;57519;51.494;-2.626;2022-07-22T12:44:22;18.95;86.08
70154;DHT22;57519;51.494;-2.626;2022-07-22T12:46:51;18.99;85.05
70154;DHT22;57519;51.494;-2.626;2022-07-22T12:49:23;19.02;85.70
70154;DHT22;57519;51.494;-2.626;2022-07-22T12:54:32;19.10;85.25
70154;DHT22;57519;51.494;-2.626;2022-07-22T12:56:58;19.23;85.98
70154;DHT22;57519;51.494;-2.626;2022-07-22T12:59:23;19.17;83.91
70154;DHT22;57519;51.494;-2.626;2022-07-22T13:01:48;19.07;84.21
70154;DHT22;57519;51.494;-2.626;2022-07-22T13:04:14;19.09;84.85
70154;DHT22;57519;51.494;-2.626;2022-07-22T13:06:40;19.10;85.56
70154;DHT22;57519;51.494;-2.626;2022-07-22T13:09:05;19.14;85.55
70154;DHT22;57519;51.494;-2.626;2022-07-22T13:11:31;19.03;85.86
70154;DHT22;57519;51.494;-2.626;2022-07-22T13:13:56;18.96;86.07
70154;DHT22;57519;51.494;-2.626;2022-07-22T13:16:22;18.90;85.40
70154;DHT22;57519;51.494;-2.626;2022-07-22T13:18:50;18.93;85.73
70154;DHT22;57519;51.494;-2.626;2022-07-22T13:21:16;18.93;85.67
70154;DHT22;57519;51.494;-2.626;2022-07-22T13:23:41;18.90;85.99
70154;DHT22;57519;51.494;-2.626;2022-07-22T13:26:07;18.92;85.82
70154;DHT22;57519;51.494;-2.626;2022-07-22T13:28:32;19.14;87.33
70154;DHT22;57519;51.494;-2.626;2022-07-22T13:30:58;19.20;87.79
70154;DHT22;57519;51.494;-2.626;2022-07-22T13:33:23;19.28;87.51
70154;DHT22;57519;51.494;-2.626;2022-07-22T13:35:48;19.27;87.12
70154;DHT22;57519;51.494;-2.626;2022-07-22T13:38:14;19.21;87.00
70154;DHT22;57519;51.494;-2.626;2022-07-22T13:40:43;19.20;86.77
70154;DHT22;57519;51.494;-2.626;2022-07-22T13:43:15;19.14;87.00
70154;DHT22;57519;51.494;-2.626;2022-07-22T13:45:41;19.18;86.23
70154;DHT22;57519;51.494;-2.626;2022-07-22T13:48:06;19.14;87.03
70154;DHT22;57519;51.494;-2.626;2022-07-22T13:50:31;19.23;86.55
70154;DHT22;57519;51.494;-2.626;2022-07-22T13:52:57;19.44;86.11
70154;DHT22;57519;51.494;-2.626;2022-07-22T13:55:22;19.51;84.80
70154;DHT22;57519;51.494;-2.626;2022-07-22T13:57:48;19.59;85.24
70154;DHT22;57519;51.494;-2.626;2022-07-22T14:00:13;19.59;84.44
70154;DHT22;57519;51.494;-2.626;2022-07-22T14:02:39;19.74;85.32
70154;DHT22;57519;51.494;-2.626;2022-07-22T14:05:05;19.55;83.53
70154;DHT22;57519;51.494;-2.626;2022-07-22T14:07:31;19.58;84.49
70154;DHT22;57519;51.494;-2.626;2022-07-22T14:09:56;19.47;84.84
70154;DHT22;57519;51.494;-2.626;2022-07-22T14:12:21;19.30;84.23
70154;DHT22;57519;51.494;-2.626;2022-07-22T14:14:47;19.43;84.95
70154;DHT22;57519;51.494;-2.626;2022-07-22T14:17:12;19.37;85.16
70154;DHT22;57519;51.494;-2.626;2022-07-22T14:19:38;19.64;84.82
70154;DHT22;57519;51.494;-2.626;2022-07-22T14:22:03;19.78;84.77
70154;DHT22;57519;51.494;-2.626;2022-07-22T14:24:29;19.85;84.77
70154;DHT22;57519;51.494;-2.626;2022-07-22T14:26:54;19.93;83.60
70154;DHT22;57519;51.494;-2.626;2022-07-22T14:29:19;20.02;83.12
70154;DHT22;57519;51.494;-2.626;2022-07-22T14:31:46;20.06;82.94
70154;DHT22;57519;51.494;-2.626;2022-07-22T14:34:12;19.92;80.53
70154;DHT22;57519;51.494;-2.626;2022-07-22T14:36:37;20.05;82.25
70154;DHT22;57519;51.494;-2.626;2022-07-22T14:39:03;20.00;82.73
70154;DHT22;57519;51.494;-2.626;2022-07-22T14:41:28;19.99;82.36
70154;DHT22;57519;51.494;-2.626;2022-07-22T14:43:54;19.78;82.01
70154;DHT22;57519;51.494;-2.626;2022-07-22T14:46:19;19.71;82.04
70154;DHT22;57519;51.494;-2.626;2022-07-22T14:48:44;19.75;81.06
70154;DHT22;57519;51.494;-2.626;2022-07-22T14:51:11;19.61;81.31
70154;DHT22;57519;51.494;-2.626;2022-07-22T14:53:37;19.72;82.86
70154;DHT22;57519;51.494;-2.626;2022-07-22T14:56:02;19.87;84.05
70154;DHT22;57519;51.494;-2.626;2022-07-22T14:58:28;20.08;80.67
70154;DHT22;57519;51.494;-2.626;2022-07-22T15:00:53;20.00;82.50
70154;DHT22;57519;51.494;-2.626;2022-07-22T15:03:22;20.08;80.99
70154;DHT22;57519;51.494;-2.626;2022-07-22T15:05:47;20.08;79.74
70154;DHT22;57519;51.494;-2.626;2022-07-22T15:08:15;20.09;80.27
70154;DHT22;57519;51.494;-2.626;2022-07-22T15:10:44;20.22;81.85
70154;DHT22;57519;51.494;-2.626;2022-07-22T15:13:10;20.40;81.45
70154;DHT22;57519;51.494;-2.626;2022-07-22T15:15:35;20.61;81.02
70154;DHT22;57519;51.494;-2.626;2022-07-22T15:18:01;20.65;80.50
70154;DHT22;57519;51.494;-2.626;2022-07-22T15:20:27;20.70;78.60
70154;DHT22;57519;51.494;-2.626;2022-07-22T15:22:52;20.61;78.26
70154;DHT22;57519;51.494;-2.626;2022-07-22T15:25:19;20.65;78.94